createdAt,value
2023-05-05T00:00:53.354Z,7.89
2023-05-05T00:01:53.376Z,7.94
2023-05-05T00:02:53.363Z,7.85
2023-05-05T00:03:53.364Z,7.89
2023-05-05T00:04:53.311Z,7.87
2023-05-05T00:05:53.299Z,7.87
2023-05-05T00:06:53.288Z,7.94
2023-05-05T00:07:53.317Z,7.92
2023-05-05T00:08:53.262Z,8.04
2023-05-05T00:09:53.248Z,8.07
2023-05-05T00:10:53.266Z,7.96
2023-05-05T00:11:53.246Z,8.02
2023-05-05T00:12:53.288Z,7.99
2023-05-05T00:13:53.210Z,8.03
2023-05-05T00:14:53.192Z,8.08
2023-05-05T00:15:53.185Z,8.17
2023-05-05T00:16:53.219Z,7.99
2023-05-05T00:17:53.406Z,8.07
2023-05-05T00:18:53.149Z,8.15
2023-05-05T00:19:53.156Z,8.03
2023-05-05T00:20:53.150Z,8.15
2023-05-05T00:21:53.142Z,8.26
2023-05-05T00:22:53.130Z,8.26
2023-05-05T00:23:53.097Z,8.21
2023-05-05T00:24:53.083Z,8.10
2023-05-05T00:25:53.084Z,7.92
2023-05-05T00:26:53.082Z,7.77
2023-05-05T00:27:53.077Z,7.81
2023-05-05T00:28:53.061Z,7.79
2023-05-05T00:29:53.045Z,7.85
2023-05-05T00:30:53.104Z,7.89
2023-05-05T00:31:53.041Z,7.69
2023-05-05T00:32:53.019Z,7.52
2023-05-05T00:33:53.016Z,7.47
2023-05-05T00:34:53.005Z,7.37
2023-05-05T00:35:52.994Z,7.35
2023-05-05T00:36:52.983Z,7.37
2023-05-05T00:37:52.967Z,7.32
2023-05-05T00:38:52.952Z,7.31
2023-05-05T00:39:52.958Z,7.38
2023-05-05T00:40:52.934Z,7.32
2023-05-05T00:41:52.933Z,7.32
2023-05-05T00:42:52.915Z,7.40
2023-05-05T00:43:52.913Z,7.40
2023-05-05T00:44:52.905Z,7.47
2023-05-05T00:45:52.882Z,7.40
2023-05-05T00:46:52.878Z,7.49
2023-05-05T00:47:52.873Z,7.45
2023-05-05T00:48:52.860Z,7.53
2023-05-05T00:49:52.862Z,7.42
2023-05-05T00:50:52.836Z,7.49
2023-05-05T00:51:52.820Z,7.47
2023-05-05T00:52:52.815Z,7.50
2023-05-05T00:53:52.821Z,7.41
2023-05-05T00:54:52.810Z,7.53
2023-05-05T00:55:52.791Z,7.47
2023-05-05T00:56:52.783Z,7.38
2023-05-05T00:57:52.780Z,7.50
2023-05-05T00:58:52.772Z,7.32
2023-05-05T00:59:52.760Z,7.44
2023-05-05T01:00:52.739Z,7.52
2023-05-05T01:01:52.777Z,7.41
2023-05-05T01:02:52.926Z,7.45
2023-05-05T01:03:52.884Z,7.53
2023-05-05T01:04:52.731Z,7.45
2023-05-05T01:05:52.690Z,7.52
2023-05-05T01:06:52.684Z,7.42
2023-05-05T01:07:52.676Z,7.34
2023-05-05T01:08:52.666Z,7.32
2023-05-05T01:10:04.166Z,7.24
2023-05-05T01:10:54.631Z,7.19
2023-05-05T01:11:52.628Z,7.12
2023-05-05T01:12:52.665Z,6.97
2023-05-05T01:13:52.607Z,7.01
2023-05-05T01:14:52.595Z,7.04
2023-05-05T01:15:52.603Z,6.95
2023-05-05T01:16:52.578Z,6.99
2023-05-05T01:17:52.628Z,6.94
2023-05-05T01:18:52.549Z,6.84
2023-05-05T01:19:52.571Z,6.87
2023-05-05T01:20:52.533Z,6.94
2023-05-05T01:21:52.528Z,6.95
2023-05-05T01:22:52.522Z,6.89
2023-05-05T01:23:52.525Z,6.98
2023-05-05T01:24:52.489Z,6.87
2023-05-05T01:25:52.481Z,6.80
2023-05-05T01:26:52.485Z,6.68
2023-05-05T01:27:52.472Z,6.71
2023-05-05T01:28:52.445Z,6.80
2023-05-05T01:29:53.444Z,6.89
2023-05-05T01:30:52.432Z,6.84
2023-05-05T01:31:52.457Z,6.91
2023-05-05T01:32:52.429Z,6.90
2023-05-05T01:33:52.398Z,6.91
2023-05-05T01:34:52.391Z,7.01
2023-05-05T01:35:52.385Z,7.04
2023-05-05T01:36:52.377Z,6.91
2023-05-05T01:37:52.355Z,7.05
2023-05-05T01:38:52.349Z,7.08
2023-05-05T01:39:52.345Z,7.08
2023-05-05T01:40:52.336Z,7.15
2023-05-05T01:41:52.318Z,7.07
2023-05-05T01:42:53.310Z,7.16
2023-05-05T01:43:52.298Z,7.19
2023-05-05T01:44:52.277Z,7.31
2023-05-05T01:45:52.290Z,7.27
2023-05-05T01:46:52.257Z,6.91
2023-05-05T01:47:52.296Z,6.94
2023-05-05T01:48:52.242Z,6.84
2023-05-05T01:49:52.225Z,6.94
2023-05-05T01:50:52.246Z,6.97
2023-05-05T01:51:52.218Z,6.99
2023-05-05T01:52:52.193Z,6.98
2023-05-05T01:53:52.193Z,7.04
2023-05-05T01:54:52.203Z,6.81
2023-05-05T01:55:52.184Z,6.86
2023-05-05T01:56:52.157Z,6.83
2023-05-05T01:57:52.150Z,6.83
2023-05-05T01:58:52.141Z,6.86
2023-05-05T01:59:52.150Z,6.95
2023-05-05T02:00:52.124Z,7.01
2023-05-05T02:01:52.114Z,7.01
2023-05-05T02:02:52.150Z,7.01
2023-05-05T02:03:52.085Z,7.08
2023-05-05T02:04:52.104Z,7.09
2023-05-05T02:05:52.065Z,7.20
2023-05-05T02:06:52.066Z,7.15
2023-05-05T02:07:52.049Z,7.27
2023-05-05T02:08:52.044Z,7.17
2023-05-05T02:09:52.030Z,7.05
2023-05-05T02:10:52.021Z,7.05
2023-05-05T02:11:52.007Z,7.12
2023-05-05T02:12:52.010Z,7.09
2023-05-05T02:13:52.072Z,7.19
2023-05-05T02:14:51.982Z,7.17
2023-05-05T02:15:52.001Z,7.23
2023-05-05T02:16:51.961Z,7.27
2023-05-05T02:17:51.991Z,7.37
2023-05-05T02:18:52.950Z,7.41
2023-05-05T02:19:51.936Z,7.45
2023-05-05T02:20:51.918Z,7.47
2023-05-05T02:21:51.926Z,7.55
2023-05-05T02:22:51.909Z,7.56
2023-05-05T02:23:52.089Z,7.62
2023-05-05T02:24:51.881Z,7.66
2023-05-05T02:25:51.884Z,7.74
2023-05-05T02:26:51.879Z,7.58
2023-05-05T02:27:51.871Z,7.53
2023-05-05T02:28:51.860Z,7.55
2023-05-05T02:29:51.839Z,7.50
2023-05-05T02:30:51.838Z,7.40
2023-05-05T02:31:51.854Z,7.47
2023-05-05T02:32:51.883Z,7.53
2023-05-05T02:33:51.795Z,7.52
2023-05-05T02:34:51.788Z,7.53
2023-05-05T02:35:51.775Z,7.63
2023-05-05T02:36:51.765Z,7.55
2023-05-05T02:37:51.769Z,7.55
2023-05-05T02:38:51.745Z,7.66
2023-05-05T02:39:51.736Z,7.63
2023-05-05T02:40:51.723Z,7.60
2023-05-05T02:41:51.724Z,7.63
2023-05-05T02:42:51.794Z,7.71
2023-05-05T02:43:51.694Z,7.62
2023-05-05T02:44:51.680Z,7.59
2023-05-05T02:45:51.676Z,7.56
2023-05-05T02:46:51.714Z,7.45
2023-05-05T02:47:51.700Z,7.56
2023-05-05T02:48:51.650Z,7.55
2023-05-05T02:49:51.639Z,7.53
2023-05-05T02:50:51.635Z,7.53
2023-05-05T02:51:51.617Z,7.50
2023-05-05T02:52:51.602Z,7.67
2023-05-05T02:53:51.595Z,7.49
2023-05-05T02:54:51.588Z,7.66
2023-05-05T02:55:51.589Z,7.56
2023-05-05T02:56:51.587Z,7.67
2023-05-05T02:57:51.562Z,7.71
2023-05-05T02:58:51.538Z,7.62
2023-05-05T02:59:51.547Z,7.71
2023-05-05T03:00:51.529Z,7.74
2023-05-05T03:01:51.577Z,7.78
2023-05-05T03:02:52.591Z,7.45
2023-05-05T03:03:51.609Z,7.55
2023-05-05T03:04:51.474Z,7.55
2023-05-05T03:05:51.507Z,7.44
2023-05-05T03:06:51.467Z,7.49
2023-05-05T03:07:51.450Z,7.41
2023-05-05T03:08:51.432Z,7.45
2023-05-05T03:09:51.430Z,7.45
2023-05-05T03:10:51.429Z,7.50
2023-05-05T03:11:51.413Z,7.56
2023-05-05T03:12:51.441Z,7.56
2023-05-05T03:13:51.384Z,7.63
2023-05-05T03:14:52.371Z,7.47
2023-05-05T03:15:51.435Z,7.50
2023-05-05T03:16:51.375Z,7.56
2023-05-05T03:17:51.377Z,7.52
2023-05-05T03:18:51.357Z,7.37
2023-05-05T03:19:51.336Z,7.38
2023-05-05T03:20:51.317Z,7.47
2023-05-05T03:21:51.314Z,7.42
2023-05-05T03:22:51.297Z,7.50
2023-05-05T03:23:51.290Z,7.50
2023-05-05T03:24:51.287Z,7.45
2023-05-05T03:25:51.262Z,7.50
2023-05-05T03:26:51.250Z,7.41
2023-05-05T03:27:51.237Z,7.47
2023-05-05T03:28:51.237Z,7.37
2023-05-05T03:29:51.226Z,7.45
2023-05-05T03:30:51.204Z,7.41
2023-05-05T03:31:51.240Z,7.42
2023-05-05T03:32:52.229Z,7.37
2023-05-05T03:33:51.194Z,7.40
2023-05-05T03:34:51.176Z,7.44
2023-05-05T03:35:51.158Z,7.50
2023-05-05T03:36:51.143Z,7.38
2023-05-05T03:37:51.135Z,7.38
2023-05-05T03:38:51.148Z,7.45
2023-05-05T03:39:51.118Z,7.41
2023-05-05T03:40:51.119Z,7.47
2023-05-05T03:41:51.089Z,7.44
2023-05-05T03:42:51.082Z,7.35
2023-05-05T03:43:51.084Z,7.45
2023-05-05T03:44:51.081Z,7.40
2023-05-05T03:45:51.078Z,7.44
2023-05-05T03:46:51.050Z,7.47
2023-05-05T03:47:51.114Z,7.38
2023-05-05T03:48:51.033Z,7.42
2023-05-05T03:49:50.999Z,7.40
2023-05-05T03:50:52.002Z,7.37
2023-05-05T03:51:50.985Z,7.52
2023-05-05T03:52:50.998Z,7.53
2023-05-05T03:53:50.966Z,7.50
2023-05-05T03:54:50.958Z,7.37
2023-05-05T03:55:50.967Z,7.50
2023-05-05T03:56:50.938Z,7.49
2023-05-05T03:57:50.946Z,7.40
2023-05-05T03:58:50.910Z,7.52
2023-05-05T03:59:50.926Z,7.26
2023-05-05T04:00:50.902Z,7.09
2023-05-05T04:01:50.889Z,7.07
2023-05-05T04:02:50.953Z,7.05
2023-05-05T04:03:50.905Z,6.90
2023-05-05T04:04:50.876Z,6.84
2023-05-05T04:05:50.854Z,6.79
2023-05-05T04:06:50.853Z,6.86
2023-05-05T04:07:50.830Z,6.84
2023-05-05T04:08:50.817Z,6.91
2023-05-05T04:09:50.808Z,6.91
2023-05-05T04:10:50.793Z,6.89
2023-05-05T04:11:50.828Z,6.98
2023-05-05T04:12:50.830Z,6.94
2023-05-05T04:13:50.835Z,7.05
2023-05-05T04:14:50.765Z,7.08
2023-05-05T04:15:50.792Z,6.99
2023-05-05T04:16:50.762Z,7.16
2023-05-05T04:17:50.745Z,7.08
2023-05-05T04:18:50.718Z,7.16
2023-05-05T04:19:50.701Z,7.08
2023-05-05T04:20:50.708Z,7.22
2023-05-05T04:21:50.710Z,7.09
2023-05-05T04:22:52.653Z,7.31
2023-05-05T04:23:51.669Z,7.26
2023-05-05T04:24:50.654Z,7.29
2023-05-05T04:25:50.648Z,7.31
2023-05-05T04:26:50.636Z,7.34
2023-05-05T04:27:50.638Z,7.35
2023-05-05T04:28:50.612Z,7.34
2023-05-05T04:29:50.606Z,7.35
2023-05-05T04:30:50.612Z,7.31
2023-05-05T04:31:50.626Z,7.42
2023-05-05T04:32:50.620Z,7.42
2023-05-05T04:33:50.560Z,7.55
2023-05-05T04:34:50.560Z,7.56
2023-05-05T04:35:50.558Z,7.49
2023-05-05T04:36:50.533Z,7.55
2023-05-05T04:37:50.511Z,7.53
2023-05-05T04:38:50.549Z,7.52
2023-05-05T04:39:50.515Z,7.62
2023-05-05T04:40:50.494Z,7.72
2023-05-05T04:41:50.479Z,7.79
2023-05-05T04:42:50.484Z,7.94
2023-05-05T04:43:50.464Z,7.99
2023-05-05T04:44:50.457Z,8.04
2023-05-05T04:45:50.435Z,8.15
2023-05-05T04:46:50.507Z,8.21
2023-05-05T04:47:50.436Z,8.18
2023-05-05T04:48:50.417Z,8.36
2023-05-05T04:49:50.403Z,8.35
2023-05-05T04:50:50.385Z,8.42
2023-05-05T04:51:50.382Z,8.50
2023-05-05T04:52:52.459Z,8.53
2023-05-05T04:53:51.379Z,8.71
2023-05-05T04:54:50.350Z,8.71
2023-05-05T04:55:50.341Z,8.76
2023-05-05T04:56:50.353Z,8.88
2023-05-05T04:57:50.347Z,8.88
2023-05-05T04:58:50.422Z,8.99
2023-05-05T04:59:50.333Z,9.09
2023-05-05T05:00:50.345Z,9.04
2023-05-05T05:01:50.427Z,9.16
2023-05-05T05:02:50.407Z,9.24
2023-05-05T05:03:50.341Z,9.38
2023-05-05T05:04:50.290Z,9.38
2023-05-05T05:05:50.267Z,9.43
2023-05-05T05:08:16.311Z,9.53
2023-05-05T05:09:16.620Z,9.60
2023-05-05T05:10:16.491Z,9.64
2023-05-05T05:11:16.269Z,9.58
2023-05-05T05:12:16.294Z,9.60
2023-05-05T05:13:16.269Z,9.63
2023-05-05T05:14:16.241Z,9.71
2023-05-05T05:15:16.234Z,9.76
2023-05-05T05:16:16.253Z,9.82
2023-05-05T05:17:16.231Z,9.89
2023-05-05T05:18:16.198Z,9.91
2023-05-05T05:19:16.188Z,9.99
2023-05-05T05:20:16.250Z,10.00
2023-05-05T05:21:22.926Z,10.07
2023-05-05T05:22:16.167Z,10.10
2023-05-05T05:23:16.142Z,10.09
2023-05-05T05:24:16.186Z,10.21
2023-05-05T05:25:16.122Z,10.14
2023-05-05T05:26:16.144Z,10.26
2023-05-05T05:27:16.136Z,10.33
2023-05-05T05:28:16.097Z,10.28
2023-05-05T05:29:16.104Z,10.32
2023-05-05T05:30:16.137Z,10.40
2023-05-05T05:31:16.095Z,10.32
2023-05-05T05:32:16.202Z,10.47
2023-05-05T05:33:16.063Z,10.59
2023-05-05T05:34:16.075Z,10.47
2023-05-05T05:35:16.018Z,10.47
2023-05-05T05:36:16.027Z,10.37
2023-05-05T05:37:16.004Z,10.44
2023-05-05T05:38:16.006Z,10.43
2023-05-05T05:39:15.977Z,10.51
2023-05-05T05:40:16.027Z,10.46
2023-05-05T05:41:15.975Z,10.59
2023-05-05T05:42:15.943Z,10.63
2023-05-05T05:43:15.927Z,10.62
2023-05-05T05:44:15.931Z,10.74
2023-05-05T05:45:15.925Z,10.83
2023-05-05T05:46:15.941Z,10.91
2023-05-05T05:47:15.877Z,10.91
2023-05-05T05:48:15.880Z,10.88
2023-05-05T05:49:15.873Z,10.86
2023-05-05T05:50:15.873Z,10.84
2023-05-05T05:51:15.839Z,10.84
2023-05-05T05:52:15.832Z,10.81
2023-05-05T05:53:15.816Z,10.92
2023-05-05T05:54:15.821Z,11.14
2023-05-05T05:55:15.830Z,11.20
2023-05-05T05:56:15.828Z,11.49
2023-05-05T05:57:15.800Z,11.62
2023-05-05T05:58:15.762Z,11.82
2023-05-05T05:59:15.747Z,11.86
2023-05-05T06:00:15.778Z,11.99
2023-05-05T06:01:15.734Z,12.19
2023-05-05T06:02:15.733Z,12.39
2023-05-05T06:03:16.631Z,12.57
2023-05-05T06:04:15.758Z,12.54
2023-05-05T06:05:15.694Z,12.54
2023-05-05T06:06:15.676Z,12.63
2023-05-05T06:07:15.659Z,12.67
2023-05-05T06:08:15.659Z,12.66
2023-05-05T06:09:15.651Z,12.82
2023-05-05T06:10:27.290Z,12.69
2023-05-05T06:11:16.657Z,12.60
2023-05-05T06:12:15.689Z,12.64
2023-05-05T06:13:15.680Z,12.74
2023-05-05T06:14:16.322Z,12.78
2023-05-05T06:15:15.582Z,12.67
2023-05-05T06:16:15.616Z,12.60
2023-05-05T06:17:15.572Z,12.62
2023-05-05T06:18:15.633Z,12.60
2023-05-05T06:19:15.590Z,12.66
2023-05-05T06:20:15.533Z,12.71
2023-05-05T06:21:15.507Z,12.77
2023-05-05T06:22:15.498Z,12.82
2023-05-05T06:23:15.507Z,12.85
2023-05-05T06:24:15.497Z,13.07
2023-05-05T06:25:15.463Z,13.07
2023-05-05T06:26:15.464Z,13.38
2023-05-05T06:27:15.450Z,13.52
2023-05-05T06:28:15.448Z,13.77
2023-05-05T06:29:15.428Z,13.87
2023-05-05T06:30:15.420Z,14.16
2023-05-05T06:31:15.438Z,14.34
2023-05-05T06:32:15.408Z,14.56
2023-05-05T06:33:15.400Z,14.69
2023-05-05T06:34:15.436Z,14.80
2023-05-05T06:35:15.362Z,14.67
2023-05-05T06:36:15.372Z,14.60
2023-05-05T06:37:15.354Z,14.49
2023-05-05T06:38:15.332Z,14.32
2023-05-05T06:39:16.176Z,14.49
2023-05-05T06:40:15.320Z,14.47
2023-05-05T06:41:15.302Z,14.35
2023-05-05T06:42:15.309Z,14.50
2023-05-05T06:43:15.287Z,14.64
2023-05-05T06:44:15.272Z,14.80
2023-05-05T06:45:15.254Z,14.80
2023-05-05T06:46:15.359Z,14.87
2023-05-05T06:47:15.244Z,14.81
2023-05-05T06:48:15.239Z,14.93
2023-05-05T06:49:15.218Z,15.08
2023-05-05T06:50:15.208Z,15.23
2023-05-05T06:51:15.201Z,15.43
2023-05-05T06:52:16.007Z,15.57
2023-05-05T06:53:15.219Z,15.81
2023-05-05T06:54:15.207Z,15.84
2023-05-05T06:55:15.156Z,15.99
2023-05-05T06:56:15.156Z,16.16
2023-05-05T06:57:15.149Z,16.31
2023-05-05T06:58:15.159Z,16.04
2023-05-05T06:59:15.124Z,15.96
2023-05-05T07:00:15.191Z,15.85
2023-05-05T07:01:15.223Z,15.99
2023-05-05T07:02:15.083Z,16.06
2023-05-05T07:03:15.178Z,16.16
2023-05-05T07:04:18.414Z,16.26
2023-05-05T07:05:15.082Z,16.33
2023-05-05T07:06:15.091Z,16.26
2023-05-05T07:07:15.030Z,16.23
2023-05-05T07:08:15.009Z,16.18
2023-05-05T07:09:17.037Z,16.31
2023-05-05T07:10:15.044Z,16.27
2023-05-05T07:11:14.987Z,16.26
2023-05-05T07:12:14.977Z,16.42
2023-05-05T07:13:15.007Z,16.59
2023-05-05T07:14:14.950Z,16.75
2023-05-05T07:15:27.951Z,16.68
2023-05-05T07:16:15.945Z,16.88
2023-05-05T07:17:14.919Z,17.03
2023-05-05T07:18:14.904Z,17.20
2023-05-05T07:19:14.905Z,17.33
2023-05-05T07:20:14.888Z,17.35
2023-05-05T07:21:14.883Z,17.47
2023-05-05T07:22:15.797Z,17.59
2023-05-05T07:24:15.944Z,17.81
2023-05-05T07:25:14.893Z,18.13
2023-05-05T07:26:16.025Z,18.17
2023-05-05T07:28:10.548Z,18.13
2023-05-05T07:28:15.983Z,18.37
2023-05-05T07:29:15.939Z,18.47
2023-05-05T07:30:18.396Z,18.42
2023-05-05T07:31:17.137Z,18.37
2023-05-05T07:32:16.018Z,18.57
2023-05-05T07:33:15.910Z,18.73
2023-05-05T07:34:18.952Z,18.80
2023-05-05T07:35:15.968Z,19.17
2023-05-05T07:36:15.838Z,19.10
2023-05-05T07:37:15.828Z,19.17
2023-05-05T07:38:15.828Z,19.35
2023-05-05T07:39:15.968Z,19.53
2023-05-05T07:40:19.509Z,19.88
2023-05-05T07:41:15.836Z,20.25
2023-05-05T07:42:30.510Z,20.50
2023-05-05T07:43:15.806Z,20.84
2023-05-05T07:44:49.538Z,20.90
2023-05-05T07:45:15.869Z,20.64
2023-05-05T07:46:15.758Z,20.41
2023-05-05T07:47:15.857Z,19.98
2023-05-05T07:48:15.730Z,19.63
2023-05-05T07:49:15.802Z,19.40
2023-05-05T07:50:15.707Z,19.43
2023-05-05T07:51:15.863Z,19.40
2023-05-05T07:52:15.747Z,19.57
2023-05-05T07:53:15.816Z,19.57
2023-05-05T07:54:15.667Z,19.66
2023-05-05T07:55:15.704Z,19.95
2023-05-05T07:56:15.669Z,20.24
2023-05-05T07:57:15.726Z,20.31
2023-05-05T07:58:15.679Z,20.62
2023-05-05T07:59:15.720Z,20.95
2023-05-05T08:00:15.628Z,21.19
2023-05-05T08:01:15.627Z,21.46
2023-05-05T08:02:15.620Z,21.59
2023-05-05T08:03:15.698Z,21.59
2023-05-05T08:04:15.688Z,21.30
2023-05-05T08:05:15.565Z,21.29
2023-05-05T08:06:15.564Z,21.36
2023-05-05T08:07:15.522Z,21.45
2023-05-05T08:08:15.592Z,21.56
2023-05-05T08:09:15.502Z,21.82
2023-05-05T08:10:15.534Z,22.06
2023-05-05T08:11:15.512Z,22.22
2023-05-05T08:12:15.470Z,22.44
2023-05-05T08:13:15.542Z,22.69
2023-05-05T08:14:15.659Z,22.84
2023-05-05T08:15:15.467Z,23.17
2023-05-05T08:16:16.700Z,23.17
2023-05-05T08:17:17.495Z,23.20
2023-05-05T08:18:15.439Z,23.23
2023-05-05T08:19:27.602Z,23.24
2023-05-05T08:20:17.550Z,23.14
2023-05-05T08:21:19.607Z,23.24
2023-05-05T08:22:15.513Z,23.29
2023-05-05T08:23:18.060Z,23.60
2023-05-05T08:24:15.555Z,23.79
2023-05-05T08:25:15.461Z,23.75
2023-05-05T08:26:15.414Z,23.20
2023-05-05T08:27:15.418Z,22.94
2023-05-05T08:28:19.020Z,23.07
2023-05-05T08:29:15.415Z,23.20
2023-05-05T08:30:15.477Z,23.15
2023-05-05T08:31:20.573Z,22.84
2023-05-05T08:32:15.547Z,22.54
2023-05-05T08:33:15.464Z,22.54
2023-05-05T08:34:15.363Z,22.47
2023-05-05T08:35:15.479Z,22.31
2023-05-05T08:36:15.344Z,22.19
2023-05-05T08:37:15.352Z,21.95
2023-05-05T08:38:15.357Z,22.25
2023-05-05T08:39:15.297Z,22.09
2023-05-05T08:40:15.262Z,22.01
2023-05-05T08:41:15.247Z,21.98
2023-05-05T08:42:25.483Z,21.99
2023-05-05T08:43:17.292Z,21.98
2023-05-05T08:44:15.245Z,22.17
2023-05-05T08:45:15.232Z,22.29
2023-05-05T08:46:15.269Z,22.37
2023-05-05T08:47:15.209Z,22.28
2023-05-05T08:48:15.307Z,22.29
2023-05-05T08:49:25.491Z,22.34
2023-05-05T08:50:17.431Z,22.19
2023-05-05T08:51:15.281Z,22.07
2023-05-05T08:52:15.188Z,22.01
2023-05-05T08:53:15.341Z,22.19
2023-05-05T08:54:15.191Z,22.39
2023-05-05T08:55:15.141Z,22.56
2023-05-05T08:56:15.187Z,22.82
2023-05-05T08:57:15.382Z,22.74
2023-05-05T08:58:17.008Z,22.74
2023-05-05T08:59:15.692Z,22.86
2023-05-05T09:00:15.614Z,22.78
2023-05-05T09:01:15.082Z,23.01
2023-05-05T09:02:16.937Z,23.26
2023-05-05T09:03:15.249Z,23.55
2023-05-05T09:04:15.049Z,23.79
2023-05-05T09:05:15.065Z,23.65
2023-05-05T09:06:15.142Z,23.65
2023-05-05T09:07:15.129Z,23.52
2023-05-05T09:08:15.008Z,23.67
2023-05-05T09:09:15.056Z,23.45
2023-05-05T09:10:16.064Z,23.40
2023-05-05T09:11:15.018Z,23.65
2023-05-05T09:12:15.027Z,23.86
2023-05-05T09:13:15.064Z,24.26
2023-05-05T09:14:14.994Z,24.49
2023-05-05T09:15:15.091Z,24.61
2023-05-05T09:16:15.041Z,24.97
2023-05-05T09:17:14.938Z,25.12
2023-05-05T09:18:14.923Z,25.44
2023-05-05T09:19:15.059Z,25.37
2023-05-05T09:20:14.984Z,25.06
2023-05-05T09:21:15.117Z,24.56
2023-05-05T09:22:14.920Z,24.22
2023-05-05T09:23:14.931Z,24.14
2023-05-05T09:24:14.878Z,24.35
2023-05-05T09:25:14.971Z,24.61
2023-05-05T09:26:14.912Z,24.97
2023-05-05T09:27:14.886Z,24.91
2023-05-05T09:28:14.872Z,24.67
2023-05-05T09:29:14.852Z,25.01
2023-05-05T09:30:14.782Z,25.27
2023-05-05T09:31:14.758Z,25.53
2023-05-05T09:32:14.731Z,25.64
2023-05-05T09:33:14.743Z,25.72
2023-05-05T09:34:14.712Z,25.69
2023-05-05T09:35:17.853Z,25.75
2023-05-05T09:36:14.717Z,25.69
2023-05-05T09:38:38.645Z,25.71
2023-05-05T09:38:46.765Z,26.05
2023-05-05T09:39:40.192Z,26.22
2023-05-05T09:40:40.249Z,26.35
2023-05-05T09:41:40.203Z,26.61
2023-05-05T09:42:40.181Z,26.79
2023-05-05T09:43:40.210Z,27.06
2023-05-05T09:44:40.242Z,27.19
2023-05-05T09:45:40.136Z,27.05
2023-05-05T09:46:40.244Z,27.10
2023-05-05T09:47:40.129Z,27.38
2023-05-05T09:48:40.204Z,26.81
2023-05-05T09:49:40.144Z,26.24
2023-05-05T09:50:40.099Z,26.22
2023-05-05T09:51:40.077Z,26.28
2023-05-05T09:52:40.120Z,26.49
2023-05-05T09:53:40.116Z,26.50
2023-05-05T09:54:40.122Z,26.40
2023-05-05T09:55:40.111Z,26.42
2023-05-05T09:56:40.013Z,26.35
2023-05-05T09:57:40.153Z,26.35
2023-05-05T09:58:40.152Z,25.89
2023-05-05T09:59:40.057Z,25.90
2023-05-05T10:00:40.868Z,25.87
2023-05-05T10:01:39.985Z,26.01
2023-05-05T10:02:40.035Z,26.02
2023-05-05T10:03:39.906Z,25.80
2023-05-05T10:04:39.936Z,25.74
2023-05-05T10:05:39.903Z,25.64
2023-05-05T10:06:39.924Z,25.50
2023-05-05T10:07:39.883Z,25.62
2023-05-05T10:08:39.891Z,25.98
2023-05-05T10:09:39.851Z,26.06
2023-05-05T10:10:39.964Z,26.09
2023-05-05T10:11:39.852Z,26.02
2023-05-05T10:12:39.853Z,26.02
2023-05-05T10:13:39.815Z,26.18
2023-05-05T10:14:39.774Z,26.59
2023-05-05T10:15:39.792Z,27.01
2023-05-05T10:16:39.808Z,27.54
2023-05-05T10:17:42.513Z,27.86
2023-05-05T10:18:40.779Z,28.21
2023-05-05T10:19:39.776Z,28.48
2023-05-05T10:20:39.745Z,28.51
2023-05-05T10:21:41.470Z,28.43
2023-05-05T10:22:40.698Z,27.84
2023-05-05T10:23:39.702Z,27.94
2023-05-05T10:24:39.729Z,28.26
2023-05-05T10:25:39.685Z,28.60
2023-05-05T10:26:39.857Z,28.90
2023-05-05T10:27:39.661Z,29.20
2023-05-05T10:28:39.695Z,29.40
2023-05-05T10:29:39.664Z,29.62
2023-05-05T10:30:39.629Z,29.49
2023-05-05T10:31:46.700Z,28.84
2023-05-05T10:33:40.658Z,28.03
2023-05-05T10:34:39.651Z,27.32
2023-05-05T10:38:31.597Z,25.83
2023-05-05T10:39:31.585Z,26.40
2023-05-05T10:40:31.601Z,26.02
2023-05-05T10:41:37.429Z,26.58
2023-05-05T10:42:31.636Z,26.73
2023-05-05T10:43:31.589Z,26.58
2023-05-05T10:44:31.535Z,26.57
2023-05-05T10:45:31.618Z,26.89
2023-05-05T10:46:31.836Z,27.58
2023-05-05T10:47:31.620Z,27.46
2023-05-05T10:48:31.509Z,27.10
2023-05-05T10:49:31.521Z,27.13
2023-05-05T10:50:31.488Z,27.06
2023-05-05T10:51:39.920Z,26.61
2023-05-05T10:52:32.457Z,26.17
2023-05-05T10:53:31.466Z,26.04
2023-05-05T10:54:31.481Z,25.75
2023-05-05T10:55:31.438Z,26.04
2023-05-05T10:56:31.517Z,26.05
2023-05-05T10:59:00.511Z,26.36
2023-05-05T10:59:57.450Z,25.97
2023-05-05T11:00:57.459Z,25.72
2023-05-05T11:01:57.420Z,25.59
2023-05-05T11:02:57.537Z,25.86
2023-05-05T11:03:57.472Z,26.35
2023-05-05T11:04:57.396Z,26.81
2023-05-05T11:05:57.380Z,27.33
2023-05-05T11:06:57.373Z,27.92
2023-05-05T11:07:57.375Z,28.56
2023-05-05T11:08:57.354Z,28.38
2023-05-05T11:09:57.377Z,28.50
2023-05-05T11:10:57.317Z,28.91
2023-05-05T11:11:57.315Z,29.13
2023-05-05T11:12:57.373Z,29.25
2023-05-05T11:13:57.324Z,29.06
2023-05-05T11:14:57.362Z,28.88
2023-05-05T11:15:57.280Z,28.97
2023-05-05T11:16:57.313Z,29.25
2023-05-05T11:17:57.422Z,29.53
2023-05-05T11:18:57.251Z,29.43
2023-05-05T11:19:57.235Z,29.56
2023-05-05T11:20:57.223Z,29.68
2023-05-05T11:21:57.211Z,29.97
2023-05-05T11:22:57.222Z,30.18
2023-05-05T11:23:57.190Z,30.24
2023-05-05T11:24:57.178Z,30.30
2023-05-05T11:25:57.170Z,30.14
2023-05-05T11:26:57.154Z,29.70
2023-05-05T11:27:57.157Z,29.35
2023-05-05T11:28:57.148Z,28.80
2023-05-05T11:29:57.136Z,28.72
2023-05-05T11:30:58.041Z,28.84
2023-05-05T11:31:57.132Z,28.82
2023-05-05T11:32:57.149Z,28.85
2023-05-05T11:33:57.105Z,28.96
2023-05-05T11:34:57.086Z,29.22
2023-05-05T11:35:57.089Z,28.93
2023-05-05T11:36:57.074Z,29.07
2023-05-05T11:38:11.543Z,29.18
2023-05-05T11:38:57.066Z,29.40
2023-05-05T11:39:57.037Z,29.31
2023-05-05T11:40:57.053Z,29.52
2023-05-05T11:41:57.031Z,29.59
2023-05-05T11:42:56.994Z,29.71
2023-05-05T11:44:03.528Z,30.09
2023-05-05T11:44:56.989Z,30.16
2023-05-05T11:45:57.012Z,30.05
2023-05-05T11:46:57.180Z,30.31
2023-05-05T11:47:57.090Z,30.09
2023-05-05T11:48:56.948Z,29.66
2023-05-05T11:49:56.945Z,29.44
2023-05-05T11:50:56.934Z,28.84
2023-05-05T11:51:56.930Z,28.47
2023-05-05T11:52:56.901Z,27.89
2023-05-05T11:53:58.512Z,27.53
2023-05-05T11:54:56.888Z,27.10
2023-05-05T11:55:56.890Z,27.04
2023-05-05T11:56:56.864Z,27.13
2023-05-05T11:57:56.886Z,27.01
2023-05-05T11:58:57.501Z,26.77
2023-05-05T11:59:56.952Z,26.77
2023-05-05T12:00:56.912Z,26.77
2023-05-05T12:01:56.811Z,26.81
2023-05-05T12:02:56.956Z,26.61
2023-05-05T12:03:57.001Z,26.40
2023-05-05T12:04:56.908Z,26.55
2023-05-05T12:05:56.799Z,26.49
2023-05-05T12:06:56.762Z,26.44
2023-05-05T12:07:56.791Z,26.52
2023-05-05T12:08:56.777Z,26.42
2023-05-05T12:09:56.745Z,26.37
2023-05-05T12:10:56.719Z,26.31
2023-05-05T12:11:56.714Z,26.12
2023-05-05T12:12:56.755Z,25.97
2023-05-05T12:14:15.105Z,26.05
2023-05-05T12:14:56.775Z,25.86
2023-05-05T12:15:56.713Z,25.64
2023-05-05T12:16:56.667Z,25.34
2023-05-05T12:18:11.892Z,25.30
2023-05-05T12:18:56.650Z,25.17
2023-05-05T12:19:56.640Z,24.97
2023-05-05T12:20:56.638Z,25.01
2023-05-05T12:21:56.613Z,24.91
2023-05-05T12:22:56.597Z,24.87
2023-05-05T12:23:56.605Z,24.88
2023-05-05T12:24:56.595Z,24.85
2023-05-05T12:25:56.566Z,24.73
2023-05-05T12:26:56.568Z,24.76
2023-05-05T12:27:56.553Z,24.95
2023-05-05T12:28:56.550Z,25.34
2023-05-05T12:29:56.550Z,25.71
2023-05-05T12:30:56.569Z,25.91
2023-05-05T12:31:56.603Z,26.31
2023-05-05T12:32:56.564Z,26.31
2023-05-05T12:33:56.682Z,26.28
2023-05-05T12:34:56.489Z,26.39
2023-05-05T12:35:56.494Z,26.44
2023-05-05T12:36:56.500Z,26.64
2023-05-05T12:37:56.465Z,26.83
2023-05-05T12:38:56.446Z,26.65
2023-05-05T12:39:56.459Z,26.64
2023-05-05T12:40:56.424Z,26.62
2023-05-05T12:41:56.424Z,26.84
2023-05-05T12:42:56.413Z,26.83
2023-05-05T12:43:56.395Z,26.95
2023-05-05T12:44:56.387Z,27.16
2023-05-05T12:45:56.386Z,27.01
2023-05-05T12:46:56.372Z,26.69
2023-05-05T12:47:56.394Z,26.40
2023-05-05T12:48:56.338Z,26.57
2023-05-05T12:49:56.512Z,26.69
2023-05-05T12:50:56.324Z,26.55
2023-05-05T12:52:11.563Z,26.42
2023-05-05T12:52:56.324Z,26.24
2023-05-05T12:53:56.298Z,26.01
2023-05-05T12:54:56.292Z,26.01
2023-05-05T12:55:56.284Z,26.12
2023-05-05T12:56:56.297Z,25.97
2023-05-05T12:57:56.257Z,26.09
2023-05-05T12:58:56.242Z,26.37
2023-05-05T12:59:56.236Z,26.09
2023-05-05T13:00:56.278Z,26.17
2023-05-05T13:01:56.284Z,26.55
2023-05-05T13:02:56.276Z,26.92
2023-05-05T13:03:56.192Z,27.41
2023-05-05T13:04:56.186Z,27.71
2023-05-05T13:05:56.181Z,27.54
2023-05-05T13:06:56.166Z,27.54
2023-05-05T13:07:56.156Z,27.24
2023-05-05T13:08:56.139Z,27.14
2023-05-05T13:09:56.137Z,27.06
2023-05-05T13:10:56.133Z,27.14